Charter Quote
Worldwide +1-877-727-2538 Call
Select Language Lang
SAFETY RELIABILITY EXPERIENCE

Private Jet Charter Services - Xiaoshan (ZSHC)

Paramount Business Jets offers private jet charter flights and luxury airliner charters to and from Xiaoshan.

AIRPORT INFORMATION
ICAOZSHC
LOCATIONHangzhou, China
FACILITY TYPEAIRPORT
Runway Length (ft) Width (ft) Surface Type Elevation (ft)
07/25 11811 148 CONC 23.00000

At Paramount Business Jets you can hire chartered private jets to and from Xiaoshan with as little as 4 hours of notice. All flights booked via Paramount Business Jets are operated by certified direct air carriers that meet and exceed the FAA part 135 and 121 protocol or a foreign equivalent safety authority. Furthermore, Paramount Business Jets subscribes to ARGUS for their third party safety checks of operators, aircraft, and crews prior each and every flight to and from Xiaoshan and worldwide.

  • Quote a trip using Xiaoshan or call us 24/7 - 365 days a year at +1-877-727-2538.
Questions? Call +1-877-727-2538

METAR Weather Data at Xiaoshan, ZSHC

STATIONZSHC
OBSERVEDMon Oct 21, 20:00 UTC
NOWMon Oct 21, 20:07 UTC
AGE7 min ago
WINDE at 4 mph
VISIBILITY13 miles
CLOUDSpartly cloudy
TEMP61°F (16°C)
DEWPT55°F (13°C)
HUMIDITY83%
BAROMETER1016 hPa (30 in Hg)
METARZSHC 212000Z 08002MPS 8000 FEW026 16/13 Q1016 NOSIG

Call us on +1-877-727-2538 (24 Hours) to Hire a Private Jet or Get a Quick Quote.

Find Airports Near any Location

Processing
...